createdAt,value
2018-12-22T00:00:22.434Z,0.00
2018-12-22T00:01:22.410Z,0.00
2018-12-22T00:02:22.390Z,0.00
2018-12-22T00:03:22.369Z,0.00
2018-12-22T00:04:22.353Z,0.00
2018-12-22T00:05:22.337Z,0.00
2018-12-22T00:06:22.317Z,0.00
2018-12-22T00:07:22.296Z,0.00
2018-12-22T00:08:22.278Z,0.00
2018-12-22T00:09:22.255Z,0.00
2018-12-22T00:10:22.235Z,0.00
2018-12-22T00:11:22.230Z,0.00
2018-12-22T00:12:22.199Z,0.00
2018-12-22T00:13:22.176Z,0.00
2018-12-22T00:14:22.156Z,0.00
2018-12-22T00:15:22.140Z,0.00
2018-12-22T00:16:22.134Z,0.00
2018-12-22T00:17:22.112Z,0.00
2018-12-22T00:18:22.083Z,0.00
2018-12-22T00:19:22.062Z,0.00
2018-12-22T00:20:22.043Z,0.00
2018-12-22T00:21:22.021Z,0.00
2018-12-22T00:22:22.004Z,0.00
2018-12-22T00:23:21.992Z,0.00
2018-12-22T00:24:21.963Z,0.00
2018-12-22T00:25:21.942Z,0.00
2018-12-22T00:26:21.923Z,0.00
2018-12-22T00:27:21.905Z,0.00
2018-12-22T00:28:22.369Z,0.00
2018-12-22T00:29:21.868Z,0.00
2018-12-22T00:30:21.846Z,0.00
2018-12-22T00:31:21.828Z,0.00
2018-12-22T00:32:21.806Z,0.00
2018-12-22T00:33:21.789Z,0.00
2018-12-22T00:34:21.769Z,0.00
2018-12-22T00:35:21.750Z,0.00
2018-12-22T00:36:21.730Z,0.00
2018-12-22T00:37:21.714Z,0.00
2018-12-22T00:38:21.695Z,0.00
2018-12-22T00:39:21.676Z,0.00
2018-12-22T00:40:21.656Z,0.00
2018-12-22T00:41:21.636Z,0.00
2018-12-22T00:42:21.616Z,0.00
2018-12-22T00:43:21.599Z,0.00
2018-12-22T00:44:21.579Z,0.00
2018-12-22T00:45:21.559Z,0.00
2018-12-22T00:46:21.539Z,0.00
2018-12-22T00:47:21.519Z,0.00
2018-12-22T00:48:21.500Z,0.00
2018-12-22T00:49:21.481Z,0.00
2018-12-22T00:50:21.459Z,0.00
2018-12-22T00:51:21.442Z,0.00
2018-12-22T00:52:21.424Z,0.00
2018-12-22T00:53:21.402Z,0.00
2018-12-22T00:54:21.387Z,0.00
2018-12-22T00:55:21.364Z,0.00
2018-12-22T00:56:21.346Z,0.00
2018-12-22T00:57:21.323Z,0.00
2018-12-22T00:58:21.302Z,0.00
2018-12-22T00:59:21.287Z,0.00
2018-12-22T01:00:21.267Z,0.00
2018-12-22T01:01:21.244Z,0.00
2018-12-22T01:02:21.233Z,0.00
2018-12-22T01:03:21.206Z,0.00
2018-12-22T01:04:21.186Z,0.00
2018-12-22T01:05:21.167Z,0.00
2018-12-22T01:06:21.149Z,0.00
2018-12-22T01:07:21.141Z,0.00
2018-12-22T01:08:21.117Z,0.00
2018-12-22T01:09:21.090Z,0.00
2018-12-22T01:10:21.073Z,0.00
2018-12-22T01:11:21.053Z,0.00
2018-12-22T01:12:21.032Z,0.00
2018-12-22T01:13:21.022Z,0.00
2018-12-22T01:14:20.992Z,0.00
2018-12-22T01:15:20.975Z,0.00
2018-12-22T01:16:20.954Z,0.00
2018-12-22T01:17:20.933Z,0.00
2018-12-22T01:18:20.917Z,0.00
2018-12-22T01:19:20.895Z,0.00
2018-12-22T01:20:20.875Z,0.00
2018-12-22T01:21:20.858Z,0.00
2018-12-22T01:22:20.906Z,0.00
2018-12-22T01:23:20.824Z,0.00
2018-12-22T01:24:20.803Z,0.00
2018-12-22T01:25:20.779Z,0.00
2018-12-22T01:26:20.769Z,0.00
2018-12-22T01:27:20.742Z,0.00
2018-12-22T01:28:20.723Z,0.00
2018-12-22T01:29:20.704Z,0.00
2018-12-22T01:30:20.684Z,0.00
2018-12-22T01:31:20.666Z,0.00
2018-12-22T01:32:20.645Z,0.00
2018-12-22T01:33:20.626Z,0.00
2018-12-22T01:34:20.607Z,0.00
2018-12-22T01:35:20.595Z,0.00
2018-12-22T01:36:20.569Z,0.00
2018-12-22T01:37:20.561Z,0.00
2018-12-22T01:38:20.531Z,0.00
2018-12-22T01:39:20.512Z,0.00
2018-12-22T01:40:20.496Z,0.00
2018-12-22T01:41:20.472Z,0.00
2018-12-22T01:42:20.459Z,0.00
2018-12-22T01:43:20.435Z,0.00
2018-12-22T01:44:20.418Z,0.00
2018-12-22T01:45:20.402Z,0.00
2018-12-22T01:46:20.386Z,0.00
2018-12-22T01:47:20.358Z,0.00
2018-12-22T01:48:20.339Z,0.00
2018-12-22T01:49:20.318Z,0.00
2018-12-22T01:50:20.305Z,0.00
2018-12-22T01:51:20.286Z,0.00
2018-12-22T01:52:20.261Z,0.00
2018-12-22T01:53:20.242Z,0.00
2018-12-22T01:54:20.223Z,0.00
2018-12-22T01:55:20.207Z,0.00
2018-12-22T01:56:20.189Z,0.00
2018-12-22T01:57:20.167Z,0.00
2018-12-22T01:58:20.151Z,0.00
2018-12-22T01:59:20.127Z,0.00
2018-12-22T02:00:20.110Z,0.00
2018-12-22T02:01:20.089Z,0.00
2018-12-22T02:02:20.072Z,0.00
2018-12-22T02:03:20.050Z,0.00
2018-12-22T02:04:20.032Z,0.00
2018-12-22T02:05:20.011Z,0.00
2018-12-22T02:06:19.997Z,0.00
2018-12-22T02:07:19.982Z,0.00
2018-12-22T02:08:19.956Z,0.00
2018-12-22T02:09:19.935Z,0.00
2018-12-22T02:10:19.915Z,0.00
2018-12-22T02:11:19.902Z,0.00
2018-12-22T02:12:19.882Z,0.00
2018-12-22T02:13:19.863Z,0.00
2018-12-22T02:14:19.842Z,0.00
2018-12-22T02:15:19.820Z,0.00
2018-12-22T02:16:19.803Z,0.00
2018-12-22T02:17:19.790Z,0.00
2018-12-22T02:18:19.768Z,0.00
2018-12-22T02:19:19.744Z,0.00
2018-12-22T02:20:19.726Z,0.00
2018-12-22T02:21:19.706Z,0.00
2018-12-22T02:22:19.687Z,0.00
2018-12-22T02:23:19.667Z,0.00
2018-12-22T02:24:19.650Z,0.00
2018-12-22T02:25:19.625Z,0.00
2018-12-22T02:26:19.606Z,0.00
2018-12-22T02:27:19.591Z,0.00
2018-12-22T02:28:19.573Z,0.00
2018-12-22T02:29:19.554Z,0.00
2018-12-22T02:30:19.531Z,0.00
2018-12-22T02:31:19.514Z,0.00
2018-12-22T02:32:19.502Z,0.00
2018-12-22T02:33:19.476Z,0.00
2018-12-22T02:34:19.454Z,0.00
2018-12-22T02:35:19.434Z,0.00
2018-12-22T02:36:19.415Z,0.00
2018-12-22T02:37:19.396Z,0.00
2018-12-22T02:38:19.377Z,0.00
2018-12-22T02:39:19.359Z,0.00
2018-12-22T02:40:19.338Z,0.00
2018-12-22T02:41:19.329Z,0.00
2018-12-22T02:42:19.303Z,0.00
2018-12-22T02:43:19.282Z,0.00
2018-12-22T02:44:19.271Z,0.00
2018-12-22T02:45:19.243Z,0.00
2018-12-22T02:46:19.226Z,0.00
2018-12-22T02:47:19.214Z,0.00
2018-12-22T02:48:19.196Z,0.00
2018-12-22T02:49:19.172Z,0.00
2018-12-22T02:50:19.147Z,0.00
2018-12-22T02:51:19.130Z,0.00
2018-12-22T02:52:19.119Z,0.00
2018-12-22T02:53:19.093Z,0.00
2018-12-22T02:54:19.070Z,0.00
2018-12-22T02:55:19.069Z,0.00
2018-12-22T02:56:19.036Z,0.00
2018-12-22T02:57:19.016Z,0.00
2018-12-22T02:58:19.001Z,0.00
2018-12-22T02:59:18.977Z,0.00
2018-12-22T03:00:18.958Z,0.00
2018-12-22T03:01:18.941Z,0.00
2018-12-22T03:02:18.915Z,0.00
2018-12-22T03:03:18.895Z,0.00
2018-12-22T03:04:18.881Z,0.00
2018-12-22T03:05:18.856Z,0.00
2018-12-22T03:06:18.838Z,0.00
2018-12-22T03:07:18.823Z,0.00
2018-12-22T03:08:18.800Z,0.00
2018-12-22T03:09:18.780Z,0.00
2018-12-22T03:10:18.766Z,0.00
2018-12-22T03:11:18.750Z,0.00
2018-12-22T03:12:18.722Z,0.00
2018-12-22T03:13:18.702Z,0.00
2018-12-22T03:14:18.685Z,0.00
2018-12-22T03:15:18.664Z,0.00
2018-12-22T03:16:18.645Z,0.00
2018-12-22T03:17:18.624Z,0.00
2018-12-22T03:18:18.609Z,0.00
2018-12-22T03:19:18.588Z,0.00
2018-12-22T03:20:18.568Z,0.00
2018-12-22T03:21:18.547Z,0.00
2018-12-22T03:22:18.529Z,0.00
2018-12-22T03:23:18.510Z,0.00
2018-12-22T03:24:18.490Z,0.00
2018-12-22T03:25:18.468Z,0.00
2018-12-22T03:26:18.453Z,0.00
2018-12-22T03:27:18.434Z,0.00
2018-12-22T03:28:18.412Z,0.00
2018-12-22T03:29:18.393Z,0.00
2018-12-22T03:30:18.376Z,0.00
2018-12-22T03:31:18.353Z,0.00
2018-12-22T03:32:18.365Z,0.00
2018-12-22T03:33:18.314Z,0.00
2018-12-22T03:34:18.293Z,0.00
2018-12-22T03:35:18.283Z,0.00
2018-12-22T03:36:18.255Z,0.00
2018-12-22T03:37:18.235Z,0.00
2018-12-22T03:38:18.215Z,0.00
2018-12-22T03:39:18.197Z,0.00
2018-12-22T03:40:18.182Z,0.00
2018-12-22T03:41:18.159Z,0.00
2018-12-22T03:42:18.143Z,0.00
2018-12-22T03:43:18.119Z,0.00
2018-12-22T03:44:18.097Z,0.00
2018-12-22T03:45:18.079Z,0.00
2018-12-22T03:46:18.060Z,0.00
2018-12-22T03:47:18.055Z,0.00
2018-12-22T03:48:18.020Z,0.00
2018-12-22T03:49:18.003Z,0.00
2018-12-22T03:50:17.982Z,0.00
2018-12-22T03:51:17.960Z,0.00
2018-12-22T03:52:17.943Z,0.00
2018-12-22T03:53:17.922Z,0.00
2018-12-22T03:54:17.903Z,0.00
2018-12-22T03:55:17.891Z,0.00
2018-12-22T03:56:17.863Z,0.00
2018-12-22T03:57:17.842Z,0.00
2018-12-22T03:58:17.824Z,0.00
2018-12-22T03:59:24.740Z,0.00
2018-12-22T04:00:17.785Z,0.00
2018-12-22T04:01:17.766Z,0.00
2018-12-22T04:02:17.752Z,0.00
2018-12-22T04:03:17.739Z,0.00
2018-12-22T04:04:17.707Z,0.00
2018-12-22T04:05:17.686Z,0.00
2018-12-22T04:06:17.670Z,0.00
2018-12-22T04:07:17.648Z,0.00
2018-12-22T04:08:17.630Z,0.00
2018-12-22T04:09:17.614Z,0.00
2018-12-22T04:10:17.590Z,0.00
2018-12-22T04:11:17.580Z,0.00
2018-12-22T04:12:17.573Z,0.00
2018-12-22T04:13:17.542Z,0.00
2018-12-22T04:14:17.512Z,0.00
2018-12-22T04:15:17.501Z,0.00
2018-12-22T04:16:17.483Z,0.00
2018-12-22T04:17:17.459Z,0.00
2018-12-22T04:18:17.436Z,0.00
2018-12-22T04:19:17.413Z,0.00
2018-12-22T04:20:17.399Z,0.00
2018-12-22T04:21:17.375Z,0.00
2018-12-22T04:22:17.366Z,0.00
2018-12-22T04:23:17.339Z,0.00
2018-12-22T04:24:17.321Z,0.00
2018-12-22T04:25:17.307Z,0.00
2018-12-22T04:26:17.338Z,0.00
2018-12-22T04:27:17.261Z,0.00
2018-12-22T04:28:17.237Z,0.00
2018-12-22T04:29:17.223Z,0.00
2018-12-22T04:30:17.197Z,0.00
2018-12-22T04:31:17.184Z,0.00
2018-12-22T04:32:17.163Z,0.00
2018-12-22T04:33:17.140Z,0.00
2018-12-22T04:34:17.135Z,0.00
2018-12-22T04:35:17.102Z,0.00
2018-12-22T04:36:17.082Z,0.00
2018-12-22T04:37:17.065Z,0.00
2018-12-22T04:38:17.052Z,0.00
2018-12-22T04:39:17.024Z,0.00
2018-12-22T04:40:17.006Z,0.00
2018-12-22T04:41:16.985Z,0.00
2018-12-22T04:42:16.966Z,0.00
2018-12-22T04:43:16.950Z,0.00
2018-12-22T04:44:16.928Z,0.00
2018-12-22T04:45:16.907Z,0.00
2018-12-22T04:46:16.888Z,0.00
2018-12-22T04:47:16.870Z,0.00
2018-12-22T04:48:16.850Z,0.00
2018-12-22T04:49:16.838Z,0.00
2018-12-22T04:50:16.813Z,0.00
2018-12-22T04:51:16.792Z,0.00
2018-12-22T04:52:16.783Z,0.00
2018-12-22T04:53:16.768Z,0.00
2018-12-22T04:54:16.927Z,0.00
2018-12-22T04:55:16.715Z,0.00
2018-12-22T04:56:16.704Z,0.00
2018-12-22T04:57:16.676Z,0.00
2018-12-22T04:58:16.658Z,0.00
2018-12-22T04:59:16.638Z,0.00
2018-12-22T05:00:16.618Z,0.00
2018-12-22T05:01:16.599Z,0.00
2018-12-22T05:02:16.580Z,0.00
2018-12-22T05:03:16.558Z,0.00
2018-12-22T05:04:16.538Z,0.00
2018-12-22T05:05:16.522Z,0.00
2018-12-22T05:06:16.499Z,0.00
2018-12-22T05:07:16.482Z,0.00
2018-12-22T05:08:16.461Z,0.00
2018-12-22T05:09:16.448Z,0.00
2018-12-22T05:10:16.420Z,0.00
2018-12-22T05:11:16.402Z,0.00
2018-12-22T05:12:16.381Z,0.00
2018-12-22T05:13:16.368Z,0.00
2018-12-22T05:14:16.471Z,0.00
2018-12-22T05:15:16.334Z,0.00
2018-12-22T05:16:16.316Z,0.00
2018-12-22T05:17:16.290Z,0.00
2018-12-22T05:18:16.273Z,0.00
2018-12-22T05:19:16.248Z,0.00
2018-12-22T05:20:16.232Z,0.00
2018-12-22T05:21:16.209Z,0.00
2018-12-22T05:22:16.191Z,0.00
2018-12-22T05:23:16.174Z,0.00
2018-12-22T05:24:16.155Z,0.00
2018-12-22T05:25:16.129Z,0.00
2018-12-22T05:26:16.112Z,0.00
2018-12-22T05:27:16.093Z,0.00
2018-12-22T05:28:16.075Z,0.00
2018-12-22T05:29:16.052Z,0.00
2018-12-22T05:30:16.043Z,0.00
2018-12-22T05:31:16.013Z,0.00
2018-12-22T05:32:15.998Z,0.00
2018-12-22T05:33:15.977Z,0.00
2018-12-22T05:34:15.957Z,0.00
2018-12-22T05:35:15.939Z,0.00
2018-12-22T05:36:15.940Z,0.00
2018-12-22T05:37:15.902Z,0.00
2018-12-22T05:38:15.881Z,0.00
2018-12-22T05:39:15.865Z,0.00
2018-12-22T05:40:15.843Z,0.00
2018-12-22T05:41:15.822Z,0.00
2018-12-22T05:42:15.810Z,0.00
2018-12-22T05:43:15.787Z,0.00
2018-12-22T05:44:15.772Z,0.00
2018-12-22T05:45:15.745Z,0.00
2018-12-22T05:46:15.727Z,0.00
2018-12-22T05:47:15.706Z,0.00
2018-12-22T05:48:15.687Z,0.00
2018-12-22T05:49:15.668Z,0.00
2018-12-22T05:50:15.659Z,0.00
2018-12-22T05:51:15.627Z,0.00
2018-12-22T05:52:15.609Z,0.00
2018-12-22T05:53:15.591Z,0.00
2018-12-22T05:54:15.568Z,0.00
2018-12-22T05:55:15.551Z,0.00
2018-12-22T05:56:15.541Z,0.00
2018-12-22T05:57:15.513Z,0.00
2018-12-22T05:58:15.493Z,0.00
2018-12-22T05:59:15.473Z,0.00
2018-12-22T06:00:15.453Z,0.00
2018-12-22T06:01:15.436Z,0.00
2018-12-22T06:02:15.416Z,0.00
2018-12-22T06:03:15.398Z,0.00
2018-12-22T06:04:15.381Z,0.00
2018-12-22T06:05:16.790Z,0.00
2018-12-22T06:06:15.338Z,0.00
2018-12-22T06:07:15.317Z,0.00
2018-12-22T06:08:15.312Z,0.00
2018-12-22T06:09:15.278Z,0.00
2018-12-22T06:10:15.260Z,0.00
2018-12-22T06:11:15.243Z,0.00
2018-12-22T06:12:15.222Z,0.00
2018-12-22T06:13:15.203Z,0.00
2018-12-22T06:14:15.180Z,0.00
2018-12-22T06:15:15.168Z,0.00
2018-12-22T06:16:15.146Z,0.00
2018-12-22T06:17:15.122Z,0.00
2018-12-22T06:18:15.107Z,0.00
2018-12-22T06:19:15.087Z,0.00
2018-12-22T06:20:15.067Z,0.00
2018-12-22T06:21:15.044Z,0.00
2018-12-22T06:22:15.024Z,0.00
2018-12-22T06:23:15.002Z,0.00
2018-12-22T06:24:14.986Z,0.00
2018-12-22T06:25:14.963Z,0.00
2018-12-22T06:26:14.947Z,0.00
2018-12-22T06:27:14.923Z,0.00
2018-12-22T06:28:14.907Z,0.00
2018-12-22T06:29:14.886Z,0.00
2018-12-22T06:30:14.868Z,0.00
2018-12-22T06:31:14.844Z,0.00
2018-12-22T06:32:14.824Z,0.00
2018-12-22T06:33:14.806Z,0.00
2018-12-22T06:34:14.785Z,0.00
2018-12-22T06:35:14.767Z,0.00
2018-12-22T06:36:14.748Z,0.00
2018-12-22T06:37:14.730Z,0.00
2018-12-22T06:38:14.709Z,0.00
2018-12-22T06:39:14.687Z,0.00
2018-12-22T06:40:14.670Z,0.00
2018-12-22T06:41:14.651Z,0.00
2018-12-22T06:42:14.634Z,0.00
2018-12-22T06:43:14.612Z,0.00
2018-12-22T06:44:14.588Z,0.00
2018-12-22T06:45:14.568Z,0.00
2018-12-22T06:46:14.553Z,0.00
2018-12-22T06:47:14.529Z,0.00
2018-12-22T06:48:14.510Z,0.00
2018-12-22T06:49:14.497Z,0.00
2018-12-22T06:50:14.471Z,0.00
2018-12-22T06:51:14.452Z,0.00
2018-12-22T06:52:14.541Z,0.00
2018-12-22T06:53:14.413Z,0.00
2018-12-22T06:54:14.394Z,0.00
2018-12-22T06:55:14.386Z,0.00
2018-12-22T06:56:14.361Z,0.00
2018-12-22T06:57:14.334Z,0.00
2018-12-22T06:58:14.314Z,0.00
2018-12-22T06:59:14.296Z,0.00
2018-12-22T07:00:17.938Z,0.00
2018-12-22T07:01:14.263Z,0.00
2018-12-22T07:02:14.241Z,0.00
2018-12-22T07:03:14.215Z,0.00
2018-12-22T07:04:14.202Z,0.00
2018-12-22T07:05:14.177Z,8.00
2018-12-22T07:06:14.159Z,4.00
2018-12-22T07:07:14.139Z,4.00
2018-12-22T07:08:14.120Z,4.00
2018-12-22T07:09:14.096Z,8.00
2018-12-22T07:10:14.079Z,8.00
2018-12-22T07:11:14.060Z,8.00
2018-12-22T07:12:14.047Z,8.00
2018-12-22T07:13:14.020Z,4.00
2018-12-22T07:14:14.001Z,8.00
2018-12-22T07:15:13.979Z,8.00
2018-12-22T07:16:13.962Z,12.00
2018-12-22T07:17:13.943Z,12.00
2018-12-22T07:18:13.922Z,12.00
2018-12-22T07:19:13.907Z,12.00
2018-12-22T07:20:13.885Z,12.00
2018-12-22T07:21:13.866Z,12.00
2018-12-22T07:22:13.852Z,12.00
2018-12-22T07:23:13.824Z,8.00
2018-12-22T07:24:13.806Z,12.00
2018-12-22T07:25:13.786Z,12.00
2018-12-22T07:26:13.766Z,12.00
2018-12-22T07:27:13.754Z,12.00
2018-12-22T07:28:13.731Z,12.00
2018-12-22T07:29:13.708Z,12.00
2018-12-22T07:30:13.688Z,12.00
2018-12-22T07:31:13.668Z,16.00
2018-12-22T07:32:13.648Z,16.00
2018-12-22T07:33:13.636Z,12.00
2018-12-22T07:34:13.616Z,16.00
2018-12-22T07:35:13.588Z,16.00
2018-12-22T07:36:13.570Z,20.00
2018-12-22T07:37:13.552Z,28.00
2018-12-22T07:38:13.532Z,32.00
2018-12-22T07:39:13.512Z,36.00
2018-12-22T07:40:13.490Z,36.00
2018-12-22T07:41:13.471Z,36.00
2018-12-22T07:42:13.454Z,32.00
2018-12-22T07:43:13.433Z,36.00
2018-12-22T07:44:13.414Z,40.00
2018-12-22T07:45:13.394Z,40.00
2018-12-22T07:46:13.372Z,40.00
2018-12-22T07:47:13.357Z,40.00
2018-12-22T07:48:13.340Z,40.00
2018-12-22T07:49:13.313Z,44.00
2018-12-22T07:50:13.295Z,44.00
2018-12-22T07:51:13.281Z,52.00
2018-12-22T07:52:13.256Z,64.00
2018-12-22T07:53:13.235Z,84.00
2018-12-22T07:54:13.221Z,100.00
2018-12-22T07:55:13.202Z,108.00
2018-12-22T07:56:13.181Z,104.00
2018-12-22T07:57:13.158Z,120.00
2018-12-22T07:58:13.150Z,128.00
2018-12-22T07:59:13.120Z,132.00
2018-12-22T08:00:13.099Z,132.00
2018-12-22T08:01:13.082Z,132.00
2018-12-22T08:02:13.061Z,128.00
2018-12-22T08:03:13.911Z,144.00
2018-12-22T08:04:13.024Z,156.00
2018-12-22T08:05:13.003Z,140.00
2018-12-22T08:06:12.988Z,144.00
2018-12-22T08:07:12.965Z,128.00
2018-12-22T08:08:12.943Z,136.00
2018-12-22T08:09:12.921Z,156.00
2018-12-22T08:10:12.905Z,184.00
2018-12-22T08:11:12.886Z,204.00
2018-12-22T08:12:12.864Z,216.00
2018-12-22T08:13:12.845Z,172.00
2018-12-22T08:14:12.824Z,160.00
2018-12-22T08:15:12.804Z,156.00
2018-12-22T08:16:12.785Z,140.00
2018-12-22T08:17:12.767Z,156.00
2018-12-22T08:18:12.746Z,200.00
2018-12-22T08:19:12.730Z,224.00
2018-12-22T08:20:12.708Z,200.00
2018-12-22T08:21:12.689Z,192.00
2018-12-22T08:22:12.670Z,184.00
2018-12-22T08:23:12.650Z,152.00
2018-12-22T08:24:12.628Z,132.00
2018-12-22T08:25:12.610Z,132.00
2018-12-22T08:26:12.590Z,120.00
2018-12-22T08:27:12.571Z,108.00
2018-12-22T08:28:12.555Z,100.00
2018-12-22T08:29:12.530Z,100.00
2018-12-22T08:30:12.514Z,100.00
2018-12-22T08:31:12.493Z,92.00
2018-12-22T08:32:12.549Z,92.00
2018-12-22T08:33:12.454Z,108.00
2018-12-22T08:34:12.434Z,136.00
2018-12-22T08:35:12.415Z,160.00
2018-12-22T08:36:12.395Z,188.00
2018-12-22T08:37:12.375Z,260.00
2018-12-22T08:38:12.356Z,284.00
2018-12-22T08:39:12.336Z,260.00
2018-12-22T08:40:12.321Z,264.00
2018-12-22T08:41:12.297Z,276.00
2018-12-22T08:42:12.277Z,296.00
2018-12-22T08:43:12.274Z,324.00
2018-12-22T08:44:12.238Z,340.00
2018-12-22T08:45:12.223Z,348.00
2018-12-22T08:46:12.202Z,376.00
2018-12-22T08:47:12.182Z,420.00
2018-12-22T08:48:12.161Z,468.00
2018-12-22T08:49:12.150Z,480.00
2018-12-22T08:50:12.124Z,460.00
2018-12-22T08:51:12.106Z,432.00
2018-12-22T08:52:12.085Z,452.00
2018-12-22T08:53:12.079Z,396.00
2018-12-22T08:54:12.046Z,412.00
2018-12-22T08:55:12.027Z,400.00
2018-12-22T08:56:12.020Z,352.00
2018-12-22T08:57:11.991Z,328.00
2018-12-22T08:58:11.972Z,408.00
2018-12-22T08:59:11.953Z,496.00
2018-12-22T09:00:11.928Z,488.00
2018-12-22T09:01:11.920Z,496.00
2018-12-22T09:02:11.895Z,540.00
2018-12-22T09:03:11.873Z,572.00
2018-12-22T09:04:11.853Z,616.00
2018-12-22T09:05:11.834Z,720.00
2018-12-22T09:06:11.824Z,760.00
2018-12-22T09:07:11.796Z,792.00
2018-12-22T09:08:11.789Z,840.00
2018-12-22T09:09:11.759Z,904.00
2018-12-22T09:10:11.734Z,976.00
2018-12-22T09:11:11.715Z,1016.00
2018-12-22T09:12:11.699Z,1012.00
2018-12-22T09:13:11.676Z,1040.00
2018-12-22T09:14:11.664Z,948.00
2018-12-22T09:15:11.636Z,808.00
2018-12-22T09:16:11.619Z,700.00
2018-12-22T09:17:11.605Z,664.00
2018-12-22T09:18:11.593Z,672.00
2018-12-22T09:19:11.562Z,684.00
2018-12-22T09:20:11.542Z,784.00
2018-12-22T09:21:11.523Z,824.00
2018-12-22T09:22:11.502Z,744.00
2018-12-22T09:23:11.531Z,800.00
2018-12-22T09:24:11.465Z,840.00
2018-12-22T09:25:11.465Z,756.00
2018-12-22T09:26:11.427Z,608.00
2018-12-22T09:27:11.406Z,592.00
2018-12-22T09:28:11.390Z,636.00
2018-12-22T09:29:11.374Z,608.00
2018-12-22T09:30:11.348Z,596.00
2018-12-22T09:31:11.329Z,572.00
2018-12-22T09:32:11.315Z,568.00
2018-12-22T09:33:11.297Z,572.00
2018-12-22T09:34:13.478Z,584.00
2018-12-22T09:35:11.255Z,612.00
2018-12-22T09:36:11.236Z,568.00
2018-12-22T09:37:11.211Z,560.00
2018-12-22T09:38:11.191Z,520.00
2018-12-22T09:39:11.172Z,480.00
2018-12-22T09:40:11.156Z,464.00
2018-12-22T09:41:11.139Z,504.00
2018-12-22T09:42:11.120Z,548.00
2018-12-22T09:43:11.097Z,528.00
2018-12-22T09:44:11.075Z,476.00
2018-12-22T09:45:11.055Z,424.00
2018-12-22T09:46:11.040Z,424.00
2018-12-22T09:47:11.015Z,388.00
2018-12-22T09:48:10.996Z,344.00
2018-12-22T09:49:10.975Z,308.00
2018-12-22T09:50:10.958Z,312.00
2018-12-22T09:51:10.939Z,284.00
2018-12-22T09:52:10.925Z,228.00
2018-12-22T09:53:10.901Z,220.00
2018-12-22T09:54:10.878Z,204.00
2018-12-22T09:55:10.868Z,200.00
2018-12-22T09:56:10.871Z,220.00
2018-12-22T09:57:10.823Z,296.00
2018-12-22T09:58:10.801Z,336.00
2018-12-22T09:59:10.781Z,404.00
2018-12-22T10:00:10.765Z,368.00
2018-12-22T10:01:10.746Z,348.00
2018-12-22T10:02:10.723Z,336.00
2018-12-22T10:03:10.702Z,440.00
2018-12-22T10:04:10.686Z,440.00
2018-12-22T10:05:10.671Z,340.00
2018-12-22T10:06:10.645Z,296.00
2018-12-22T10:07:10.634Z,248.00
2018-12-22T10:08:10.610Z,232.00
2018-12-22T10:09:10.585Z,200.00
2018-12-22T10:10:10.571Z,176.00
2018-12-22T10:11:10.547Z,224.00
2018-12-22T10:12:10.527Z,292.00
2018-12-22T10:13:10.520Z,308.00
2018-12-22T10:14:10.487Z,296.00
2018-12-22T10:15:10.469Z,332.00
2018-12-22T10:16:10.450Z,388.00
2018-12-22T10:17:10.433Z,420.00
2018-12-22T10:18:10.410Z,420.00
2018-12-22T10:19:10.390Z,452.00
2018-12-22T10:20:10.374Z,532.00
2018-12-22T10:21:10.354Z,448.00
2018-12-22T10:22:10.330Z,412.00
2018-12-22T10:23:10.317Z,448.00
2018-12-22T10:24:10.298Z,572.00
2018-12-22T10:25:10.280Z,600.00
2018-12-22T10:26:10.254Z,560.00
2018-12-22T10:27:10.240Z,552.00
2018-12-22T10:28:10.221Z,532.00
2018-12-22T10:29:10.201Z,516.00
2018-12-22T10:30:10.184Z,392.00
2018-12-22T10:31:17.705Z,352.00
2018-12-22T10:32:10.146Z,364.00
2018-12-22T10:33:10.233Z,364.00
2018-12-22T10:34:10.098Z,416.00
2018-12-22T10:35:10.084Z,352.00
2018-12-22T10:36:10.059Z,296.00
2018-12-22T10:37:10.039Z,368.00
2018-12-22T10:38:10.022Z,432.00
2018-12-22T10:39:09.998Z,500.00
2018-12-22T10:40:09.982Z,556.00
2018-12-22T10:41:09.968Z,748.00
2018-12-22T10:42:09.947Z,744.00
2018-12-22T10:43:09.927Z,824.00
2018-12-22T10:44:09.903Z,900.00
2018-12-22T10:45:09.884Z,960.00
2018-12-22T10:46:09.974Z,884.00
2018-12-22T10:47:09.856Z,728.00
2018-12-22T10:48:09.834Z,764.00
2018-12-22T10:49:09.811Z,940.00
2018-12-22T10:50:09.789Z,1040.00
2018-12-22T10:51:09.775Z,1172.00
2018-12-22T10:52:09.753Z,1284.00
2018-12-22T10:53:09.738Z,1348.00
2018-12-22T10:54:09.723Z,1096.00
2018-12-22T10:55:09.698Z,884.00
2018-12-22T10:56:09.676Z,796.00
2018-12-22T10:57:09.658Z,688.00
2018-12-22T10:58:09.644Z,592.00
2018-12-22T10:59:09.618Z,500.00
2018-12-22T11:00:09.611Z,400.00
2018-12-22T11:01:09.578Z,384.00
2018-12-22T11:02:09.568Z,496.00
2018-12-22T11:03:09.545Z,604.00
2018-12-22T11:04:09.520Z,644.00
2018-12-22T11:05:09.718Z,704.00
2018-12-22T11:06:09.483Z,696.00
2018-12-22T11:07:09.478Z,732.00
2018-12-22T11:08:09.445Z,724.00
2018-12-22T11:09:09.830Z,760.00
2018-12-22T11:10:09.412Z,768.00
2018-12-22T11:11:09.385Z,868.00
2018-12-22T11:12:09.368Z,980.00
2018-12-22T11:13:09.343Z,1020.00
2018-12-22T11:14:09.322Z,1040.00
2018-12-22T11:15:09.305Z,968.00
2018-12-22T11:16:09.286Z,856.00
2018-12-22T11:17:09.268Z,772.00
2018-12-22T11:18:09.249Z,732.00
2018-12-22T11:19:09.238Z,684.00
2018-12-22T11:20:09.212Z,620.00
2018-12-22T11:21:09.245Z,576.00
2018-12-22T11:22:09.172Z,588.00
2018-12-22T11:23:09.152Z,724.00
2018-12-22T11:24:09.131Z,832.00
2018-12-22T11:25:09.113Z,860.00
2018-12-22T11:26:09.090Z,872.00
2018-12-22T11:27:09.073Z,916.00
2018-12-22T11:28:09.061Z,1020.00
2018-12-22T11:29:09.032Z,936.00
2018-12-22T11:30:09.019Z,964.00
2018-12-22T11:31:08.996Z,1084.00
2018-12-22T11:32:08.975Z,1156.00
2018-12-22T11:33:08.954Z,1188.00
2018-12-22T11:34:08.934Z,1268.00
2018-12-22T11:35:08.919Z,1488.00
2018-12-22T11:36:08.898Z,1944.00
2018-12-22T11:37:08.881Z,2572.00
2018-12-22T11:38:08.867Z,3528.00
2018-12-22T11:39:08.845Z,5240.00
2018-12-22T11:40:08.825Z,4064.00
2018-12-22T11:41:08.804Z,4480.00
2018-12-22T11:42:08.784Z,3924.00
2018-12-22T11:43:08.769Z,3952.00
2018-12-22T11:44:08.751Z,3048.00
2018-12-22T11:45:08.737Z,3088.00
2018-12-22T11:46:08.713Z,2852.00
2018-12-22T11:47:08.693Z,2616.00
2018-12-22T11:48:08.685Z,2472.00
2018-12-22T11:49:08.670Z,2364.00
2018-12-22T11:50:08.653Z,2316.00
2018-12-22T11:51:08.627Z,2744.00
2018-12-22T11:52:08.603Z,2776.00
2018-12-22T11:53:08.597Z,3420.00
2018-12-22T11:54:08.566Z,3420.00
2018-12-22T11:55:08.554Z,3444.00
2018-12-22T11:56:08.538Z,3284.00
2018-12-22T11:57:08.515Z,3268.00
2018-12-22T11:58:08.498Z,3312.00
2018-12-22T11:59:08.481Z,3216.00
2018-12-22T12:00:08.488Z,3128.00
2018-12-22T12:01:08.455Z,3016.00
2018-12-22T12:02:09.869Z,2896.00
2018-12-22T12:03:08.411Z,2644.00
2018-12-22T12:04:08.391Z,2476.00
2018-12-22T12:05:08.372Z,2416.00
2018-12-22T12:06:08.356Z,2404.00
2018-12-22T12:07:08.337Z,2356.00
2018-12-22T12:08:08.318Z,2412.00
2018-12-22T12:09:08.301Z,2380.00
2018-12-22T12:10:08.283Z,2356.00
2018-12-22T12:11:08.263Z,2380.00
2018-12-22T12:12:08.249Z,2436.00
2018-12-22T12:13:08.229Z,2212.00
2018-12-22T12:14:08.210Z,1912.00
2018-12-22T12:15:08.195Z,1752.00
2018-12-22T12:16:08.174Z,1744.00
2018-12-22T12:17:08.162Z,1688.00
2018-12-22T12:18:08.142Z,1876.00
2018-12-22T12:19:08.121Z,2004.00
2018-12-22T12:20:08.102Z,1852.00
2018-12-22T12:21:08.092Z,1528.00
2018-12-22T12:22:08.065Z,1304.00
2018-12-22T12:23:08.050Z,1236.00
2018-12-22T12:24:08.034Z,1224.00
2018-12-22T12:25:08.011Z,1200.00
2018-12-22T12:26:07.992Z,1184.00
2018-12-22T12:27:07.977Z,1208.00
2018-12-22T12:28:07.958Z,1168.00
2018-12-22T12:29:07.947Z,1136.00
2018-12-22T12:30:07.923Z,1068.00
2018-12-22T12:31:07.908Z,1148.00
2018-12-22T12:32:07.884Z,1204.00
2018-12-22T12:33:07.866Z,1092.00
2018-12-22T12:34:07.860Z,744.00
2018-12-22T12:35:07.832Z,648.00
2018-12-22T12:36:07.813Z,704.00
2018-12-22T12:37:07.797Z,768.00
2018-12-22T12:38:07.781Z,740.00
2018-12-22T12:39:07.817Z,696.00
2018-12-22T12:40:07.738Z,684.00
2018-12-22T12:41:07.723Z,832.00
2018-12-22T12:42:07.700Z,1008.00
2018-12-22T12:43:07.685Z,1092.00
2018-12-22T12:44:07.673Z,1016.00
2018-12-22T12:45:07.646Z,1012.00
2018-12-22T12:46:07.635Z,968.00
2018-12-22T12:47:07.617Z,840.00
2018-12-22T12:48:07.593Z,1012.00
2018-12-22T12:49:07.578Z,1116.00
2018-12-22T12:50:07.561Z,1256.00
2018-12-22T12:51:07.538Z,1488.00
2018-12-22T12:52:07.518Z,1612.00
2018-12-22T12:53:09.704Z,1744.00
2018-12-22T12:54:07.482Z,1804.00